Open Full Screen Window  High Contrast Mode
Wind Gusting 27 knots
20
October 19, 2018 2:48 PM CDT
Weather Information
Wind Direction
  320 °
Wind Speed
  20 kt (23 mph)
Wind Gust
  27 kt (31 mph)
Altimeter
29.81 in
Visibility
10 SM
Temperature
12° C
54° F
Dewpoint
01° C
34° F
Humidity
47%
1hr Rain Fall
00.00 in.
24hr Rain Fall
00.00 in.
Sky Condition
Overcast @ 7,000 ft
Scattered @ 6,000 ft
Scattered @ 5,000 ft
VFR

METAR KBJI 191948Z AUTO 32020G27KT 10SM SCT050 SCT060 OVC070 12/01 A2981 RMK AO2 T01230008

FAA Disclaimer: The data displayed is for advisory purposes only and is not to be used for flight planning or operations.